createdAt,value
2018-02-24T00:00:51.324Z,32.70
2018-02-24T00:01:51.315Z,32.20
2018-02-24T00:02:51.306Z,31.20
2018-02-24T00:03:51.296Z,33.90
2018-02-24T00:04:51.288Z,33.00
2018-02-24T00:05:51.278Z,31.40
2018-02-24T00:06:51.269Z,32.60
2018-02-24T00:07:51.259Z,32.50
2018-02-24T00:08:51.249Z,31.40
2018-02-24T00:09:51.239Z,32.20
2018-02-24T00:10:51.232Z,33.80
2018-02-24T00:11:51.222Z,31.30
2018-02-24T00:12:51.212Z,32.20
2018-02-24T00:13:51.204Z,32.30
2018-02-24T00:14:51.193Z,30.60
2018-02-24T00:15:51.184Z,32.60
2018-02-24T00:16:51.174Z,32.00
2018-02-24T00:17:51.165Z,31.90
2018-02-24T00:18:51.156Z,33.40
2018-02-24T00:19:51.148Z,31.40
2018-02-24T00:20:51.137Z,33.40
2018-02-24T00:21:51.129Z,31.00
2018-02-24T00:22:51.117Z,32.80
2018-02-24T00:23:51.109Z,33.30
2018-02-24T00:24:51.101Z,31.90
2018-02-24T00:25:51.096Z,32.70
2018-02-24T00:26:51.081Z,32.70
2018-02-24T00:27:51.073Z,31.90
2018-02-24T00:28:51.061Z,32.60
2018-02-24T00:29:51.053Z,31.50
2018-02-24T00:30:51.043Z,32.90
2018-02-24T00:31:51.034Z,31.90
2018-02-24T00:32:51.028Z,33.40
2018-02-24T00:33:51.014Z,31.20
2018-02-24T00:34:51.005Z,33.40
2018-02-24T00:35:50.996Z,31.80
2018-02-24T00:36:50.986Z,30.80
2018-02-24T00:37:50.977Z,34.20
2018-02-24T00:38:50.968Z,32.60
2018-02-24T00:39:50.959Z,32.10
2018-02-24T00:40:50.949Z,31.80
2018-02-24T00:41:50.939Z,30.20
2018-02-24T00:42:50.930Z,32.10
2018-02-24T00:43:50.922Z,33.00
2018-02-24T00:44:50.910Z,30.50
2018-02-24T00:45:50.902Z,32.80
2018-02-24T00:46:50.893Z,32.20
2018-02-24T00:47:50.883Z,31.70
2018-02-24T00:48:50.874Z,31.30
2018-02-24T00:49:50.864Z,32.10
2018-02-24T00:50:50.860Z,33.50
2018-02-24T00:51:50.848Z,30.80
2018-02-24T00:52:50.835Z,32.80
2018-02-24T00:53:50.827Z,32.10
2018-02-24T00:54:50.818Z,31.30
2018-02-24T00:55:50.809Z,30.80
2018-02-24T00:56:50.799Z,32.10
2018-02-24T00:57:50.790Z,32.00
2018-02-24T00:58:50.783Z,31.80
2018-02-24T00:59:50.771Z,32.10
2018-02-24T01:00:50.762Z,31.10
2018-02-24T01:01:50.752Z,31.60
2018-02-24T01:02:50.743Z,30.90
2018-02-24T01:03:50.735Z,31.90
2018-02-24T01:04:50.726Z,32.40
2018-02-24T01:05:50.716Z,31.30
2018-02-24T01:06:50.707Z,33.00
2018-02-24T01:07:50.697Z,30.90
2018-02-24T01:08:50.688Z,31.50
2018-02-24T01:09:50.679Z,30.80
2018-02-24T01:10:50.669Z,31.50
2018-02-24T01:11:50.661Z,30.50
2018-02-24T01:12:50.651Z,31.50
2018-02-24T01:13:50.640Z,31.00
2018-02-24T01:14:50.633Z,32.00
2018-02-24T01:15:50.624Z,31.30
2018-02-24T01:16:50.613Z,31.40
2018-02-24T01:17:50.604Z,32.20
2018-02-24T01:18:50.594Z,32.40
2018-02-24T01:19:50.586Z,31.40
2018-02-24T01:20:50.577Z,34.30
2018-02-24T01:21:50.566Z,32.20
2018-02-24T01:22:50.559Z,32.70
2018-02-24T01:23:50.550Z,33.10
2018-02-24T01:24:50.550Z,33.40
2018-02-24T01:25:50.530Z,31.80
2018-02-24T01:26:50.521Z,33.90
2018-02-24T01:27:50.512Z,33.20
2018-02-24T01:28:50.501Z,32.60
2018-02-24T01:29:50.492Z,33.10
2018-02-24T01:30:50.485Z,32.10
2018-02-24T01:31:50.475Z,34.70
2018-02-24T01:32:50.465Z,31.90
2018-02-24T01:33:50.459Z,32.60
2018-02-24T01:34:50.447Z,31.60
2018-02-24T01:35:50.437Z,32.50
2018-02-24T01:36:50.428Z,31.40
2018-02-24T01:37:50.419Z,31.90
2018-02-24T01:38:50.410Z,32.50
2018-02-24T01:39:50.401Z,32.60
2018-02-24T01:40:50.389Z,32.60
2018-02-24T01:41:50.382Z,31.00
2018-02-24T01:42:50.375Z,32.70
2018-02-24T01:43:50.364Z,32.20
2018-02-24T01:44:50.471Z,32.10
2018-02-24T01:45:50.344Z,31.80
2018-02-24T01:46:50.335Z,32.30
2018-02-24T01:47:50.325Z,33.10
2018-02-24T01:48:50.316Z,33.00
2018-02-24T01:49:50.306Z,32.50
2018-02-24T01:50:50.299Z,32.50
2018-02-24T01:51:50.303Z,31.00
2018-02-24T01:52:50.278Z,30.80
2018-02-24T01:53:50.270Z,31.90
2018-02-24T01:54:50.260Z,31.90
2018-02-24T01:55:50.252Z,31.70
2018-02-24T01:56:50.244Z,32.70
2018-02-24T01:57:50.232Z,32.10
2018-02-24T01:58:50.224Z,32.10
2018-02-24T01:59:50.213Z,32.90
2018-02-24T02:00:50.204Z,33.00
2018-02-24T02:01:50.194Z,32.90
2018-02-24T02:02:50.189Z,31.40
2018-02-24T02:03:50.176Z,33.30
2018-02-24T02:04:50.166Z,33.00
2018-02-24T02:05:50.159Z,31.10
2018-02-24T02:06:50.147Z,32.70
2018-02-24T02:07:50.139Z,32.20
2018-02-24T02:08:50.129Z,31.80
2018-02-24T02:09:50.120Z,33.10
2018-02-24T02:10:50.111Z,34.20
2018-02-24T02:11:50.101Z,32.60
2018-02-24T02:12:50.091Z,33.30
2018-02-24T02:13:50.083Z,32.20
2018-02-24T02:14:50.074Z,31.70
2018-02-24T02:15:50.065Z,32.60
2018-02-24T02:16:50.055Z,32.80
2018-02-24T02:17:50.046Z,31.60
2018-02-24T02:18:50.037Z,34.20
2018-02-24T02:19:50.028Z,33.20
2018-02-24T02:20:50.018Z,31.50
2018-02-24T02:21:50.007Z,33.40
2018-02-24T02:22:49.999Z,32.90
2018-02-24T02:23:49.991Z,31.40
2018-02-24T02:24:49.978Z,31.70
2018-02-24T02:25:49.970Z,33.70
2018-02-24T02:26:49.962Z,32.90
2018-02-24T02:27:49.953Z,32.10
2018-02-24T02:28:49.943Z,32.90
2018-02-24T02:29:49.932Z,32.90
2018-02-24T02:30:49.924Z,32.90
2018-02-24T02:31:49.916Z,32.10
2018-02-24T02:32:49.905Z,32.80
2018-02-24T02:33:49.898Z,31.90
2018-02-24T02:34:49.886Z,32.40
2018-02-24T02:35:49.877Z,32.00
2018-02-24T02:36:49.867Z,30.40
2018-02-24T02:37:49.861Z,31.90
2018-02-24T02:38:49.850Z,33.30
2018-02-24T02:39:49.841Z,31.00
2018-02-24T02:40:49.829Z,32.70
2018-02-24T02:41:49.821Z,33.10
2018-02-24T02:42:49.820Z,32.20
2018-02-24T02:43:49.802Z,32.80
2018-02-24T02:44:49.793Z,32.30
2018-02-24T02:45:49.785Z,32.10
2018-02-24T02:46:49.775Z,33.40
2018-02-24T02:47:49.766Z,32.50
2018-02-24T02:48:49.755Z,32.10
2018-02-24T02:49:49.747Z,30.50
2018-02-24T02:50:49.739Z,32.00
2018-02-24T02:51:49.731Z,32.00
2018-02-24T02:52:49.719Z,30.30
2018-02-24T02:53:49.711Z,31.10
2018-02-24T02:54:49.704Z,31.40
2018-02-24T02:55:49.692Z,31.20
2018-02-24T02:56:49.680Z,31.90
2018-02-24T02:57:49.672Z,31.20
2018-02-24T02:58:49.665Z,30.00
2018-02-24T02:59:49.656Z,31.30
2018-02-24T03:00:49.646Z,30.50
2018-02-24T03:01:49.635Z,32.20
2018-02-24T03:02:49.626Z,31.60
2018-02-24T03:03:49.618Z,31.80
2018-02-24T03:04:49.608Z,31.60
2018-02-24T03:05:49.599Z,30.80
2018-02-24T03:06:49.588Z,31.30
2018-02-24T03:07:49.579Z,30.90
2018-02-24T03:08:49.569Z,31.20
2018-02-24T03:09:49.560Z,32.10
2018-02-24T03:10:49.550Z,30.80
2018-02-24T03:11:49.542Z,31.20
2018-02-24T03:12:49.531Z,30.70
2018-02-24T03:13:49.523Z,31.60
2018-02-24T03:14:49.515Z,30.80
2018-02-24T03:15:49.506Z,31.00
2018-02-24T03:16:49.495Z,31.40
2018-02-24T03:17:49.486Z,32.70
2018-02-24T03:18:49.477Z,32.90
2018-02-24T03:19:49.468Z,32.60
2018-02-24T03:20:49.458Z,31.20
2018-02-24T03:21:49.451Z,31.30
2018-02-24T03:22:49.439Z,32.10
2018-02-24T03:23:49.434Z,30.90
2018-02-24T03:24:49.423Z,31.80
2018-02-24T03:25:49.410Z,30.40
2018-02-24T03:26:49.403Z,32.20
2018-02-24T03:27:49.392Z,31.80
2018-02-24T03:28:49.384Z,32.40
2018-02-24T03:29:49.379Z,32.50
2018-02-24T03:30:49.366Z,33.00
2018-02-24T03:31:49.357Z,31.90
2018-02-24T03:32:49.346Z,33.70
2018-02-24T03:33:49.337Z,32.20
2018-02-24T03:34:49.328Z,31.40
2018-02-24T03:35:49.322Z,32.70
2018-02-24T03:36:49.308Z,32.10
2018-02-24T03:37:49.301Z,33.10
2018-02-24T03:38:49.291Z,33.10
2018-02-24T03:39:49.317Z,31.50
2018-02-24T03:40:49.270Z,33.20
2018-02-24T03:41:49.262Z,32.40
2018-02-24T03:42:49.254Z,34.50
2018-02-24T03:43:49.244Z,34.80
2018-02-24T03:44:49.235Z,33.60
2018-02-24T03:45:49.228Z,34.20
2018-02-24T03:46:49.219Z,33.00
2018-02-24T03:47:49.209Z,33.30
2018-02-24T03:48:49.195Z,33.10
2018-02-24T03:49:49.186Z,35.40
2018-02-24T03:50:49.179Z,35.60
2018-02-24T03:51:49.169Z,34.00
2018-02-24T03:52:49.158Z,33.90
2018-02-24T03:53:49.150Z,32.40
2018-02-24T03:54:49.152Z,34.40
2018-02-24T03:55:49.130Z,34.50
2018-02-24T03:56:49.120Z,34.60
2018-02-24T03:57:49.111Z,33.70
2018-02-24T03:58:49.103Z,35.50
2018-02-24T03:59:49.092Z,34.50
2018-02-24T04:00:49.084Z,36.10
2018-02-24T04:01:49.074Z,32.80
2018-02-24T04:02:49.066Z,35.30
2018-02-24T04:03:49.055Z,35.30
2018-02-24T04:04:49.046Z,33.60
2018-02-24T04:05:49.037Z,36.20
2018-02-24T04:06:49.026Z,36.00
2018-02-24T04:07:49.017Z,36.90
2018-02-24T04:08:49.008Z,36.20
2018-02-24T04:09:48.999Z,36.70
2018-02-24T04:10:48.989Z,35.60
2018-02-24T04:11:48.980Z,35.60
2018-02-24T04:12:48.971Z,37.80
2018-02-24T04:13:48.961Z,35.90
2018-02-24T04:14:48.955Z,35.60
2018-02-24T04:15:48.942Z,36.20
2018-02-24T04:16:48.932Z,37.30
2018-02-24T04:17:48.926Z,34.80
2018-02-24T04:18:48.913Z,35.30
2018-02-24T04:19:48.905Z,35.20
2018-02-24T04:20:48.897Z,34.60
2018-02-24T04:21:48.886Z,35.20
2018-02-24T04:22:48.876Z,36.90
2018-02-24T04:23:48.869Z,36.00
2018-02-24T04:24:48.857Z,36.00
2018-02-24T04:25:48.849Z,35.60
2018-02-24T04:26:48.839Z,34.50
2018-02-24T04:27:48.829Z,37.30
2018-02-24T04:28:48.819Z,37.10
2018-02-24T04:29:48.810Z,35.80
2018-02-24T04:30:48.801Z,36.20
2018-02-24T04:31:48.790Z,35.40
2018-02-24T04:32:48.781Z,35.90
2018-02-24T04:33:48.773Z,34.70
2018-02-24T04:34:48.762Z,36.50
2018-02-24T04:35:48.754Z,35.40
2018-02-24T04:36:48.743Z,35.70
2018-02-24T04:37:48.733Z,35.90
2018-02-24T04:38:48.760Z,35.10
2018-02-24T04:39:48.716Z,34.50
2018-02-24T04:40:48.704Z,35.30
2018-02-24T04:41:48.695Z,35.20
2018-02-24T04:42:48.687Z,35.60
2018-02-24T04:43:48.677Z,34.40
2018-02-24T04:44:48.667Z,35.20
2018-02-24T04:45:48.657Z,35.30
2018-02-24T04:46:48.649Z,35.60
2018-02-24T04:47:48.639Z,34.70
2018-02-24T04:48:48.628Z,36.10
2018-02-24T04:49:48.619Z,33.40
2018-02-24T04:50:48.611Z,33.90
2018-02-24T04:51:48.599Z,35.30
2018-02-24T04:52:48.589Z,34.70
2018-02-24T04:53:48.581Z,34.10
2018-02-24T04:54:48.572Z,33.10
2018-02-24T04:55:48.563Z,34.20
2018-02-24T04:56:48.555Z,34.70
2018-02-24T04:57:48.543Z,35.10
2018-02-24T04:58:48.533Z,34.10
2018-02-24T04:59:48.525Z,35.60
2018-02-24T05:00:48.513Z,35.80
2018-02-24T05:01:48.505Z,36.30
2018-02-24T05:02:48.494Z,34.30
2018-02-24T05:03:48.485Z,34.90
2018-02-24T05:04:48.476Z,34.80
2018-02-24T05:05:48.466Z,35.90
2018-02-24T05:06:48.458Z,35.10
2018-02-24T05:07:48.447Z,35.60
2018-02-24T05:08:48.437Z,33.80
2018-02-24T05:09:48.427Z,34.50
2018-02-24T05:10:48.419Z,37.20
2018-02-24T05:11:48.408Z,35.40
2018-02-24T05:12:48.400Z,34.70
2018-02-24T05:13:48.390Z,32.90
2018-02-24T05:14:48.381Z,35.80
2018-02-24T05:15:48.372Z,32.90
2018-02-24T05:16:48.360Z,35.00
2018-02-24T05:17:48.351Z,33.20
2018-02-24T05:18:48.344Z,35.80
2018-02-24T05:19:48.335Z,35.80
2018-02-24T05:20:48.324Z,36.60
2018-02-24T05:21:48.313Z,35.90
2018-02-24T05:22:48.306Z,36.20
2018-02-24T05:23:48.296Z,36.70
2018-02-24T05:24:48.286Z,37.60
2018-02-24T05:25:48.276Z,35.30
2018-02-24T05:26:48.268Z,37.90
2018-02-24T05:27:48.259Z,37.00
2018-02-24T05:28:48.247Z,36.80
2018-02-24T05:29:48.243Z,37.60
2018-02-24T05:30:48.230Z,36.80
2018-02-24T05:31:48.219Z,38.20
2018-02-24T05:32:48.210Z,38.40
2018-02-24T05:33:48.201Z,38.00
2018-02-24T05:34:48.191Z,37.70
2018-02-24T05:35:48.183Z,37.10
2018-02-24T05:36:48.176Z,37.20
2018-02-24T05:37:48.163Z,38.70
2018-02-24T05:38:48.157Z,40.10
2018-02-24T05:39:48.145Z,39.60
2018-02-24T05:40:48.134Z,39.20
2018-02-24T05:41:48.125Z,38.30
2018-02-24T05:42:48.115Z,39.90
2018-02-24T05:43:48.107Z,39.20
2018-02-24T05:44:48.095Z,40.10
2018-02-24T05:45:48.087Z,38.90
2018-02-24T05:46:48.079Z,39.60
2018-02-24T05:47:48.069Z,40.80
2018-02-24T05:48:48.063Z,39.80
2018-02-24T05:49:48.050Z,39.70
2018-02-24T05:50:48.040Z,40.40
2018-02-24T05:51:48.032Z,41.00
2018-02-24T05:52:48.022Z,40.20
2018-02-24T05:53:48.016Z,40.00
2018-02-24T05:54:48.003Z,41.20
2018-02-24T05:55:47.993Z,40.90
2018-02-24T05:56:47.999Z,43.50
2018-02-24T05:57:47.976Z,41.70
2018-02-24T05:58:47.965Z,40.80
2018-02-24T05:59:47.954Z,42.50
2018-02-24T06:00:47.943Z,40.80
2018-02-24T06:01:47.936Z,41.80
2018-02-24T06:02:47.925Z,43.50
2018-02-24T06:03:47.916Z,42.50
2018-02-24T06:04:47.905Z,43.30
2018-02-24T06:05:47.896Z,41.30
2018-02-24T06:06:47.888Z,42.50
2018-02-24T06:07:47.879Z,42.40
2018-02-24T06:08:47.867Z,41.70
2018-02-24T06:09:47.858Z,42.20
2018-02-24T06:10:47.849Z,43.20
2018-02-24T06:11:47.840Z,43.70
2018-02-24T06:12:47.829Z,41.70
2018-02-24T06:13:47.821Z,43.70
2018-02-24T06:14:47.811Z,46.30
2018-02-24T06:15:47.857Z,43.50
2018-02-24T06:16:47.792Z,44.40
2018-02-24T06:17:47.784Z,42.50
2018-02-24T06:18:47.773Z,44.10
2018-02-24T06:19:47.764Z,43.50
2018-02-24T06:20:47.754Z,45.90
2018-02-24T06:21:47.746Z,46.60
2018-02-24T06:22:47.733Z,44.70
2018-02-24T06:23:47.726Z,44.30
2018-02-24T06:24:47.715Z,43.60
2018-02-24T06:25:47.707Z,44.80
2018-02-24T06:26:47.697Z,44.00
2018-02-24T06:27:47.688Z,44.80
2018-02-24T06:28:47.677Z,42.40
2018-02-24T06:29:47.667Z,44.50
2018-02-24T06:30:47.659Z,44.80
2018-02-24T06:31:47.648Z,44.70
2018-02-24T06:32:47.638Z,45.50
2018-02-24T06:33:47.629Z,43.60
2018-02-24T06:34:47.623Z,44.60
2018-02-24T06:35:47.610Z,44.10
2018-02-24T06:36:47.600Z,43.30
2018-02-24T06:37:47.590Z,42.80
2018-02-24T06:38:47.582Z,45.50
2018-02-24T06:39:47.571Z,42.70
2018-02-24T06:40:47.560Z,42.20
2018-02-24T06:41:47.552Z,44.30
2018-02-24T06:42:47.543Z,45.00
2018-02-24T06:43:47.532Z,43.90
2018-02-24T06:44:47.522Z,44.70
2018-02-24T06:45:47.514Z,42.50
2018-02-24T06:46:47.504Z,43.80
2018-02-24T06:47:47.496Z,43.80
2018-02-24T06:48:47.538Z,44.60
2018-02-24T06:49:47.475Z,44.70
2018-02-24T06:50:47.465Z,42.90
2018-02-24T06:51:47.456Z,41.30
2018-02-24T06:52:47.445Z,42.70
2018-02-24T06:53:47.436Z,41.40
2018-02-24T06:54:47.428Z,44.40
2018-02-24T06:55:47.418Z,41.20
2018-02-24T06:56:47.408Z,42.40
2018-02-24T06:57:47.398Z,42.20
2018-02-24T06:58:47.389Z,41.20
2018-02-24T06:59:47.380Z,41.30
2018-02-24T07:00:47.383Z,41.80
2018-02-24T07:01:47.366Z,42.20
2018-02-24T07:02:47.351Z,41.90
2018-02-24T07:03:47.340Z,41.80
2018-02-24T07:04:47.330Z,43.30
2018-02-24T07:05:47.321Z,41.80
2018-02-24T07:06:47.311Z,41.70
2018-02-24T07:07:47.303Z,42.80
2018-02-24T07:08:47.295Z,41.90
2018-02-24T07:09:47.283Z,39.80
2018-02-24T07:10:47.273Z,40.70
2018-02-24T07:11:47.265Z,38.40
2018-02-24T07:12:47.253Z,41.80
2018-02-24T07:13:47.247Z,40.10
2018-02-24T07:14:47.234Z,38.90
2018-02-24T07:15:47.226Z,39.80
2018-02-24T07:16:47.216Z,39.20
2018-02-24T07:17:47.211Z,38.60
2018-02-24T07:18:47.200Z,38.20
2018-02-24T07:19:47.187Z,39.40
2018-02-24T07:20:47.176Z,40.10
2018-02-24T07:21:47.169Z,38.70
2018-02-24T07:22:47.159Z,40.00
2018-02-24T07:23:47.149Z,39.90
2018-02-24T07:24:47.138Z,40.20
2018-02-24T07:25:47.130Z,38.00
2018-02-24T07:26:47.121Z,38.80
2018-02-24T07:27:47.111Z,39.50
2018-02-24T07:28:47.102Z,42.00
2018-02-24T07:29:47.094Z,38.00
2018-02-24T07:30:47.082Z,38.30
2018-02-24T07:31:47.076Z,39.90
2018-02-24T07:32:47.063Z,38.20
2018-02-24T07:33:47.055Z,37.50
2018-02-24T07:34:47.044Z,38.80
2018-02-24T07:35:47.036Z,38.10
2018-02-24T07:36:47.027Z,37.50
2018-02-24T07:37:47.021Z,38.50
2018-02-24T07:38:47.008Z,36.90
2018-02-24T07:39:46.999Z,37.30
2018-02-24T07:40:46.988Z,39.40
2018-02-24T07:41:46.980Z,37.20
2018-02-24T07:42:46.971Z,38.20
2018-02-24T07:43:46.959Z,38.10
2018-02-24T07:44:46.950Z,37.60
2018-02-24T07:45:46.940Z,37.10
2018-02-24T07:46:46.932Z,35.40
2018-02-24T07:47:46.924Z,35.90
2018-02-24T07:48:46.913Z,36.70
2018-02-24T07:49:46.903Z,37.00
2018-02-24T07:50:46.893Z,36.80
2018-02-24T07:51:46.886Z,36.90
2018-02-24T07:52:46.874Z,36.70
2018-02-24T07:53:46.867Z,36.90
2018-02-24T07:54:46.856Z,37.40
2018-02-24T07:55:46.847Z,35.70
2018-02-24T07:56:46.836Z,36.30
2018-02-24T07:57:46.830Z,37.80
2018-02-24T07:58:46.817Z,35.90
2018-02-24T07:59:46.809Z,36.90
2018-02-24T08:00:46.798Z,35.80
2018-02-24T08:01:46.789Z,34.50
2018-02-24T08:02:46.780Z,36.00
2018-02-24T08:03:46.774Z,36.70
2018-02-24T08:04:46.763Z,35.00
2018-02-24T08:05:46.751Z,37.20
2018-02-24T08:06:46.743Z,36.60
2018-02-24T08:07:46.735Z,35.30
2018-02-24T08:08:46.723Z,34.40
2018-02-24T08:09:46.712Z,36.10
2018-02-24T08:10:46.705Z,36.20
2018-02-24T08:11:46.695Z,37.10
2018-02-24T08:12:46.686Z,36.50
2018-02-24T08:13:46.676Z,35.70
2018-02-24T08:14:46.666Z,36.20
2018-02-24T08:15:46.656Z,35.80
2018-02-24T08:16:46.653Z,36.50
2018-02-24T08:17:46.644Z,38.00
2018-02-24T08:18:46.632Z,37.20
2018-02-24T08:19:46.624Z,36.60
2018-02-24T08:20:46.609Z,37.30
2018-02-24T08:21:46.600Z,35.80
2018-02-24T08:22:46.591Z,36.90
2018-02-24T08:23:46.582Z,35.20
2018-02-24T08:24:46.571Z,36.90
2018-02-24T08:25:46.562Z,36.10
2018-02-24T08:26:46.555Z,35.60
2018-02-24T08:27:46.544Z,35.80
2018-02-24T08:28:46.535Z,35.60
2018-02-24T08:29:46.526Z,37.00
2018-02-24T08:30:46.516Z,37.70
2018-02-24T08:31:46.508Z,36.70
2018-02-24T08:32:46.498Z,36.60
2018-02-24T08:33:46.488Z,38.00
2018-02-24T08:34:46.479Z,39.80
2018-02-24T08:35:46.470Z,39.30
2018-02-24T08:36:46.460Z,38.00
2018-02-24T08:37:46.452Z,37.20
2018-02-24T08:38:46.442Z,39.50
2018-02-24T08:39:46.434Z,38.10
2018-02-24T08:40:46.424Z,36.00
2018-02-24T08:41:46.416Z,35.80
2018-02-24T08:42:46.418Z,36.00
2018-02-24T08:43:46.401Z,35.20
2018-02-24T08:44:46.387Z,36.20
2018-02-24T08:45:46.419Z,35.90
2018-02-24T08:46:46.370Z,36.00
2018-02-24T08:47:46.361Z,34.50
2018-02-24T08:48:46.353Z,34.80
2018-02-24T08:49:46.342Z,34.30
2018-02-24T08:50:46.332Z,34.80
2018-02-24T08:51:46.629Z,34.30
2018-02-24T08:52:46.341Z,35.80
2018-02-24T08:53:46.304Z,34.70
2018-02-24T08:54:46.297Z,35.40
2018-02-24T08:55:46.287Z,35.60
2018-02-24T08:56:46.277Z,34.30
2018-02-24T08:57:46.269Z,36.50
2018-02-24T08:58:46.309Z,34.70
2018-02-24T08:59:46.252Z,35.10
2018-02-24T09:00:46.242Z,34.00
2018-02-24T09:01:46.233Z,35.20
2018-02-24T09:02:46.229Z,34.60
2018-02-24T09:03:46.215Z,34.40
2018-02-24T09:04:46.206Z,34.80
2018-02-24T09:05:46.199Z,33.60
2018-02-24T09:06:46.189Z,33.10
2018-02-24T09:07:46.185Z,34.70
2018-02-24T09:08:46.172Z,33.00
2018-02-24T09:09:46.163Z,33.70
2018-02-24T09:10:46.154Z,34.70
2018-02-24T09:11:46.146Z,32.60
2018-02-24T09:12:46.138Z,32.50
2018-02-24T09:13:46.127Z,32.90
2018-02-24T09:14:46.118Z,36.10
2018-02-24T09:15:46.111Z,33.90
2018-02-24T09:16:46.102Z,37.10
2018-02-24T09:17:46.093Z,34.20
2018-02-24T09:18:46.085Z,34.00
2018-02-24T09:19:46.078Z,32.00
2018-02-24T09:20:46.068Z,32.10
2018-02-24T09:21:46.058Z,30.50
2018-02-24T09:22:46.050Z,32.30
2018-02-24T09:23:46.043Z,32.90
2018-02-24T09:24:46.033Z,31.30
2018-02-24T09:25:46.024Z,32.70
2018-02-24T09:26:46.018Z,32.20
2018-02-24T09:27:46.009Z,30.00
2018-02-24T09:28:46.001Z,32.20
2018-02-24T09:29:45.990Z,32.10
2018-02-24T09:30:46.249Z,31.50
2018-02-24T09:31:46.239Z,31.90
2018-02-24T09:32:45.966Z,31.00
2018-02-24T09:33:45.958Z,31.80
2018-02-24T09:34:45.949Z,30.80
2018-02-24T09:35:45.940Z,29.50
2018-02-24T09:36:45.932Z,30.20
2018-02-24T09:37:46.197Z,31.00
2018-02-24T09:38:45.946Z,31.40
2018-02-24T09:39:45.906Z,30.70
2018-02-24T09:40:45.898Z,32.20
2018-02-24T09:41:45.888Z,30.00
2018-02-24T09:42:45.880Z,33.20
2018-02-24T09:43:45.873Z,34.80
2018-02-24T09:44:45.864Z,34.70
2018-02-24T09:45:45.857Z,32.10
2018-02-24T09:46:45.848Z,31.70
2018-02-24T09:47:45.847Z,31.50
2018-02-24T09:48:45.830Z,31.50
2018-02-24T09:49:45.821Z,32.70
2018-02-24T09:50:45.814Z,31.50
2018-02-24T09:51:45.804Z,30.10
2018-02-24T09:52:45.796Z,32.00
2018-02-24T09:53:45.789Z,32.70
2018-02-24T09:54:45.780Z,33.20
2018-02-24T09:55:45.773Z,31.30
2018-02-24T09:56:45.768Z,33.00
2018-02-24T09:57:45.754Z,32.20
2018-02-24T09:58:45.783Z,32.90
2018-02-24T09:59:45.741Z,32.90
2018-02-24T10:00:45.729Z,30.80
2018-02-24T10:01:45.721Z,33.50
2018-02-24T10:02:45.714Z,33.60
2018-02-24T10:03:45.705Z,32.30
2018-02-24T10:04:45.696Z,30.10
2018-02-24T10:05:45.686Z,31.20
2018-02-24T10:06:45.677Z,32.50
2018-02-24T10:07:45.670Z,32.00
2018-02-24T10:08:45.673Z,31.70
2018-02-24T10:09:45.652Z,32.20
2018-02-24T10:10:45.645Z,31.10
2018-02-24T10:11:45.636Z,31.10
2018-02-24T10:12:45.628Z,32.70
2018-02-24T10:13:45.621Z,32.80
2018-02-24T10:14:45.610Z,34.50
2018-02-24T10:15:45.602Z,32.20
2018-02-24T10:16:45.594Z,32.10
2018-02-24T10:17:45.586Z,33.20
2018-02-24T10:18:45.578Z,32.50
2018-02-24T10:19:45.568Z,32.10
2018-02-24T10:20:45.560Z,32.90
2018-02-24T10:21:45.551Z,33.70
2018-02-24T10:22:45.543Z,32.00
2018-02-24T10:23:45.534Z,34.60
2018-02-24T10:24:45.526Z,32.70
2018-02-24T10:25:45.521Z,33.40
2018-02-24T10:26:45.510Z,32.70
2018-02-24T10:27:45.501Z,32.40
2018-02-24T10:28:45.498Z,32.50
2018-02-24T10:29:45.484Z,33.20
2018-02-24T10:30:45.476Z,32.20
2018-02-24T10:31:45.468Z,33.10
2018-02-24T10:32:45.461Z,33.10
2018-02-24T10:33:45.452Z,32.70
2018-02-24T10:34:45.444Z,32.40
2018-02-24T10:35:45.436Z,32.40
2018-02-24T10:36:45.427Z,31.70
2018-02-24T10:37:45.429Z,34.40
2018-02-24T10:38:45.412Z,33.70
2018-02-24T10:39:45.404Z,33.60
2018-02-24T10:40:45.396Z,33.00
2018-02-24T10:41:45.389Z,32.30
2018-02-24T10:42:45.381Z,32.40
2018-02-24T10:43:45.372Z,34.00
2018-02-24T10:44:45.364Z,32.50
2018-02-24T10:45:45.356Z,33.20
2018-02-24T10:46:45.350Z,32.50
2018-02-24T10:47:45.343Z,32.60
2018-02-24T10:48:45.332Z,31.80
2018-02-24T10:49:45.325Z,33.90
2018-02-24T10:50:45.316Z,32.40
2018-02-24T10:51:45.308Z,31.00
2018-02-24T10:52:45.299Z,30.70
2018-02-24T10:53:45.291Z,31.40
2018-02-24T10:54:45.282Z,33.10
2018-02-24T10:55:45.272Z,30.80
2018-02-24T10:56:45.264Z,31.30
2018-02-24T10:57:45.259Z,33.20
2018-02-24T10:58:45.250Z,31.50
2018-02-24T10:59:45.240Z,34.10
2018-02-24T11:00:45.232Z,34.30
2018-02-24T11:01:45.224Z,32.80
2018-02-24T11:02:45.214Z,31.60
2018-02-24T11:03:45.208Z,31.70
2018-02-24T11:04:45.197Z,31.00
2018-02-24T11:05:45.188Z,33.30
2018-02-24T11:06:45.182Z,32.70
2018-02-24T11:07:45.173Z,33.10
2018-02-24T11:08:45.164Z,33.60
2018-02-24T11:09:45.156Z,32.20
2018-02-24T11:10:45.147Z,32.50
2018-02-24T11:11:45.140Z,31.60
2018-02-24T11:12:45.417Z,34.20
2018-02-24T11:13:45.121Z,35.90
2018-02-24T11:14:45.114Z,34.00
2018-02-24T11:15:45.105Z,32.90
2018-02-24T11:16:45.097Z,33.10
2018-02-24T11:17:45.106Z,32.50
2018-02-24T11:18:45.079Z,34.20
2018-02-24T11:19:45.071Z,34.00
2018-02-24T11:20:45.063Z,34.60
2018-02-24T11:21:45.056Z,32.90
2018-02-24T11:22:45.048Z,33.00
2018-02-24T11:23:45.039Z,33.60
2018-02-24T11:24:45.032Z,34.10
2018-02-24T11:25:45.021Z,33.60
2018-02-24T11:26:45.013Z,35.10
2018-02-24T11:27:45.006Z,32.80
2018-02-24T11:28:44.997Z,34.30
2018-02-24T11:29:44.988Z,31.30
2018-02-24T11:30:45.012Z,31.40
2018-02-24T11:31:44.972Z,32.50
2018-02-24T11:32:44.968Z,32.20
2018-02-24T11:33:44.957Z,33.40
2018-02-24T11:34:44.948Z,31.80
2018-02-24T11:35:44.939Z,34.40
2018-02-24T11:36:44.931Z,33.70
2018-02-24T11:37:44.922Z,33.20
2018-02-24T11:38:44.915Z,33.40
2018-02-24T11:39:44.907Z,34.40
2018-02-24T11:40:44.897Z,33.70
2018-02-24T11:41:44.890Z,32.40
2018-02-24T11:42:44.883Z,34.80
2018-02-24T11:43:44.875Z,32.40
2018-02-24T11:44:44.864Z,33.20
2018-02-24T11:45:44.859Z,33.70
2018-02-24T11:46:44.850Z,31.60
2018-02-24T11:47:44.841Z,33.50
2018-02-24T11:48:44.835Z,34.80
2018-02-24T11:49:44.826Z,33.10
2018-02-24T11:50:44.822Z,33.80
2018-02-24T11:51:44.811Z,32.80
2018-02-24T11:52:44.801Z,32.00
2018-02-24T11:53:44.793Z,32.80
2018-02-24T11:54:44.786Z,33.50
2018-02-24T11:55:44.778Z,33.70
2018-02-24T11:56:44.770Z,33.20
2018-02-24T11:57:44.762Z,33.60
2018-02-24T11:58:44.754Z,32.50
2018-02-24T11:59:44.745Z,33.50
2018-02-24T12:00:44.741Z,34.10
2018-02-24T12:01:44.730Z,34.40
2018-02-24T12:02:44.722Z,32.40
2018-02-24T12:03:44.714Z,33.40
2018-02-24T12:04:44.705Z,31.60
2018-02-24T12:05:44.700Z,32.20
2018-02-24T12:06:44.690Z,34.10
2018-02-24T12:07:44.683Z,31.90
2018-02-24T12:08:44.674Z,33.20
2018-02-24T12:09:44.666Z,32.00
2018-02-24T12:10:44.657Z,31.40
2018-02-24T12:11:44.654Z,31.10
2018-02-24T12:12:44.642Z,33.40
2018-02-24T12:13:44.655Z,34.10
2018-02-24T12:14:44.626Z,32.90
2018-02-24T12:15:44.617Z,32.30
2018-02-24T12:16:44.608Z,34.20
2018-02-24T12:17:44.600Z,33.30
2018-02-24T12:18:44.592Z,34.90
2018-02-24T12:19:44.584Z,33.10
2018-02-24T12:20:44.576Z,32.00
2018-02-24T12:21:44.568Z,32.50
2018-02-24T12:22:44.560Z,32.80
2018-02-24T12:23:44.553Z,31.10
2018-02-24T12:24:44.542Z,32.90
2018-02-24T12:25:44.539Z,31.70
2018-02-24T12:26:44.529Z,32.40
2018-02-24T12:27:44.520Z,30.80
2018-02-24T12:28:44.512Z,30.60
2018-02-24T12:29:44.503Z,32.40
2018-02-24T12:30:44.496Z,30.50
2018-02-24T12:31:44.489Z,31.90
2018-02-24T12:32:44.479Z,30.40
2018-02-24T12:33:44.473Z,31.40
2018-02-24T12:34:44.463Z,30.50
2018-02-24T12:35:44.456Z,31.30
2018-02-24T12:36:44.451Z,29.50
2018-02-24T12:37:44.440Z,31.20
2018-02-24T12:38:44.438Z,29.00
2018-02-24T12:39:44.424Z,28.70
2018-02-24T12:40:44.416Z,30.10
2018-02-24T12:41:44.406Z,30.90
2018-02-24T12:42:44.399Z,28.60
2018-02-24T12:43:44.393Z,28.70
2018-02-24T12:44:44.382Z,30.00
2018-02-24T12:45:44.374Z,29.60
2018-02-24T12:46:44.445Z,30.50
2018-02-24T12:47:44.359Z,30.30
2018-02-24T12:48:44.351Z,30.20
2018-02-24T12:49:44.344Z,28.10
2018-02-24T12:50:44.334Z,29.50
2018-02-24T12:51:44.328Z,28.10
2018-02-24T12:52:44.317Z,29.10